createdAt,value
2023-01-02T07:07:16.562Z,100.00
2023-01-02T07:12:21.501Z,100.00
2023-01-02T07:17:25.173Z,100.00
2023-01-02T07:23:21.444Z,100.00
2023-01-02T08:03:03.327Z,100.00
2023-01-02T08:08:09.086Z,100.00
2023-01-02T08:13:19.584Z,100.00
2023-01-02T08:18:28.146Z,100.00
2023-01-02T08:30:32.830Z,100.00
2023-01-02T08:35:39.311Z,100.00
2023-01-02T08:40:43.013Z,100.00
2023-01-02T10:00:29.961Z,100.00
2023-01-02T10:05:57.071Z,100.00
2023-01-02T10:11:10.123Z,100.00
2023-01-02T10:16:19.865Z,100.00
2023-01-02T10:21:27.169Z,100.00
2023-01-02T10:26:35.534Z,100.00
2023-01-02T10:31:44.082Z,100.00
2023-01-02T10:36:48.554Z,100.00
2023-01-02T10:41:55.979Z,100.00
2023-01-02T10:47:01.186Z,100.00
2023-01-02T10:52:11.479Z,100.00
2023-01-02T10:57:20.605Z,100.00
2023-01-02T11:02:39.645Z,100.00
2023-01-02T11:07:49.301Z,100.00
2023-01-02T11:12:52.943Z,100.00
2023-01-02T11:17:58.444Z,100.00
2023-01-02T11:23:04.174Z,100.00
2023-01-02T11:28:08.054Z,100.00
2023-01-02T11:33:22.111Z,99.91
2023-01-02T11:38:29.443Z,99.22
2023-01-02T11:43:52.838Z,98.92
2023-01-02T11:49:03.337Z,98.17
2023-01-02T11:54:14.427Z,97.97
2023-01-02T11:59:20.881Z,97.55
2023-01-02T12:04:27.227Z,98.05
2023-01-02T12:09:35.729Z,97.78
2023-01-02T12:14:54.732Z,97.45
2023-01-02T12:20:08.037Z,97.74
2023-01-02T12:25:29.031Z,97.00
2023-01-02T12:30:34.851Z,97.22
2023-01-02T12:36:07.978Z,97.40
2023-01-02T12:41:21.377Z,97.63
2023-01-02T12:46:33.864Z,97.88
2023-01-02T12:51:45.264Z,97.63
2023-01-02T12:56:54.143Z,97.72
2023-01-02T13:02:04.572Z,97.90
2023-01-02T13:07:14.785Z,98.25
2023-01-02T13:12:19.861Z,98.26
2023-01-02T13:17:36.867Z,98.48
2023-01-02T13:22:51.664Z,98.48
2023-01-02T13:28:06.304Z,98.37
2023-01-02T13:33:24.557Z,98.71
2023-01-02T13:38:30.864Z,98.69
2023-01-02T13:43:36.053Z,98.62
2023-01-02T13:48:40.867Z,98.89
2023-01-02T13:53:49.587Z,99.64
2023-01-02T13:59:01.928Z,99.42
2023-01-02T14:04:28.801Z,99.46
2023-01-02T14:10:11.833Z,99.80
2023-01-02T14:15:18.609Z,100.00
2023-01-02T14:20:26.120Z,100.00
2023-01-02T14:25:32.412Z,100.00
2023-01-02T14:30:38.922Z,100.00
2023-01-02T14:35:50.320Z,100.00
2023-01-02T14:41:16.155Z,100.00
2023-01-02T14:46:23.073Z,100.00
2023-01-02T14:51:32.971Z,100.00
2023-01-02T14:56:40.686Z,100.00
2023-01-02T15:01:48.472Z,100.00
2023-01-02T15:07:01.255Z,100.00
2023-01-02T15:12:42.203Z,100.00
2023-01-02T15:19:04.248Z,100.00
2023-01-02T15:24:18.546Z,100.00
2023-01-02T15:29:25.861Z,100.00
2023-01-02T15:35:12.391Z,100.00
2023-01-02T15:40:47.277Z,100.00
2023-01-02T15:46:36.859Z,100.00
2023-01-02T15:52:08.099Z,100.00
2023-01-02T15:57:16.275Z,100.00
